JBU1691 KFLL-KATL
Flight info
| Callsign | JBU1691 |
|---|---|
| Flight time | 1h 29m |
| Altitude | 34000 |
| Route | FRSBE2 STYMY Q77 SHRKS LAIRI LARZZ JJEDI4 |
| Aircraft | A320/M-SDE3FGHIRWY/LB1 |
Departure
| Time | 2026-05-08 01:30 |
|---|---|
| Airport | Fort Lauderdale Hollywood International Airport (KFLL) |
Arrival
| Time | 2026-05-08 02:59 |
|---|---|
| Airport | Hartsfield Jackson Atlanta International Airport (KATL) |
| Time | Latitude | Longitude | Altitude | Speed | Heading |
|---|---|---|---|---|---|
| 2026-05-08 00:55 | 26.07284 | -80.14698 | 17 ft | 0 kts | 44° |
| 2026-05-08 01:05 | 26.07283 | -80.14698 | 16 ft | 0 kts | 44° |
| 2026-05-08 01:16 | 26.07280 | -80.14701 | 6 ft | 3 kts | 44° |
| 2026-05-08 01:17 | 26.07261 | -80.14722 | 16 ft | 4 kts | 39° |
| 2026-05-08 01:17 | 26.07239 | -80.14737 | 17 ft | 4 kts | 9° |
| 2026-05-08 01:17 | 26.07224 | -80.14735 | 17 ft | 1 kts | 298° |
| 2026-05-08 01:17 | 26.07222 | -80.14730 | 17 ft | 0 kts | 298° |
| 2026-05-08 01:20 | 26.07241 | -80.14767 | 16 ft | 13 kts | 300° |
| 2026-05-08 01:20 | 26.07298 | -80.14847 | 16 ft | 14 kts | 338° |
| 2026-05-08 01:21 | 26.07376 | -80.14903 | 16 ft | 9 kts | 290° |
| 2026-05-08 01:21 | 26.07426 | -80.14981 | 17 ft | 18 kts | 314° |
| 2026-05-08 01:21 | 26.07491 | -80.15084 | 16 ft | 21 kts | 279° |
| 2026-05-08 01:21 | 26.07495 | -80.15276 | 16 ft | 31 kts | 269° |
| 2026-05-08 01:22 | 26.07491 | -80.15511 | 16 ft | 27 kts | 270° |
| 2026-05-08 01:22 | 26.07489 | -80.15673 | 16 ft | 9 kts | 269° |
| 2026-05-08 01:22 | 26.07488 | -80.15749 | 16 ft | 11 kts | 270° |
| 2026-05-08 01:22 | 26.07494 | -80.15903 | 16 ft | 30 kts | 271° |
| 2026-05-08 01:23 | 26.07494 | -80.16119 | 16 ft | 22 kts | 270° |
| 2026-05-08 01:23 | 26.07495 | -80.16299 | 16 ft | 24 kts | 270° |
| 2026-05-08 01:23 | 26.07496 | -80.16468 | 16 ft | 20 kts | 271° |
| 2026-05-08 01:23 | 26.07568 | -80.16563 | 16 ft | 14 kts | 356° |
| 2026-05-08 01:24 | 26.07585 | -80.16563 | 17 ft | 0 kts | 1° |
| 2026-05-08 01:25 | 26.07645 | -80.16562 | 18 ft | 19 kts | 2° |
| 2026-05-08 01:26 | 26.07694 | -80.16466 | 19 ft | 3 kts | 90° |
| 2026-05-08 01:29 | 26.07694 | -80.16463 | 19 ft | 3 kts | 90° |
| 2026-05-08 01:30 | 26.07691 | -80.16192 | 20 ft | 70 kts | 91° |
| 2026-05-08 01:30 | 26.07683 | -80.15421 | 16 ft | 126 kts | 90° |
| 2026-05-08 01:30 | 26.07673 | -80.14314 | 271 ft | 141 kts | 93° |
| 2026-05-08 01:30 | 26.07674 | -80.13349 | 935 ft | 119 kts | 91° |
| 2026-05-08 01:31 | 26.07696 | -80.12325 | 859 ft | 150 kts | 92° |
| 2026-05-08 01:31 | 26.07712 | -80.11156 | 1164 ft | 153 kts | 93° |
| 2026-05-08 01:31 | 26.07802 | -80.09868 | 1256 ft | 182 kts | 78° |
| 2026-05-08 01:31 | 26.08308 | -80.08480 | 1463 ft | 206 kts | 67° |
| 2026-05-08 01:32 | 26.09253 | -80.07171 | 1677 ft | 234 kts | 36° |
| 2026-05-08 01:32 | 26.10797 | -80.06396 | 1992 ft | 258 kts | 19° |
| 2026-05-08 01:32 | 26.12528 | -80.05732 | 2649 ft | 268 kts | 19° |
| 2026-05-08 01:32 | 26.14302 | -80.05066 | 3514 ft | 269 kts | 11° |
| 2026-05-08 01:33 | 26.16150 | -80.04956 | 4442 ft | 267 kts | 349° |
| 2026-05-08 01:33 | 26.17927 | -80.05525 | 5351 ft | 266 kts | 340° |
| 2026-05-08 01:33 | 26.19683 | -80.06203 | 6133 ft | 271 kts | 339° |
| 2026-05-08 01:33 | 26.21369 | -80.07184 | 6794 ft | 278 kts | 322° |
| 2026-05-08 01:34 | 26.22721 | -80.08730 | 7515 ft | 281 kts | 304° |
| 2026-05-08 01:34 | 26.23613 | -80.10673 | 8223 ft | 284 kts | 291° |
| 2026-05-08 01:34 | 26.24344 | -80.12737 | 8905 ft | 289 kts | 291° |
| 2026-05-08 01:34 | 26.25085 | -80.14833 | 9603 ft | 292 kts | 291° |
| 2026-05-08 01:35 | 26.26009 | -80.16865 | 10224 ft | 298 kts | 301° |
| 2026-05-08 01:35 | 26.27163 | -80.18889 | 10382 ft | 321 kts | 301° |
| 2026-05-08 01:35 | 26.28399 | -80.21058 | 10495 ft | 342 kts | 301° |
| 2026-05-08 01:35 | 26.29698 | -80.23338 | 10791 ft | 354 kts | 301° |
| 2026-05-08 01:36 | 26.31007 | -80.25642 | 11323 ft | 357 kts | 301° |
| 2026-05-08 01:36 | 26.32338 | -80.27986 | 11941 ft | 359 kts | 301° |
| 2026-05-08 01:36 | 26.33674 | -80.30341 | 12558 ft | 360 kts | 301° |
| 2026-05-08 01:36 | 26.35016 | -80.32712 | 13140 ft | 363 kts | 301° |
| 2026-05-08 01:37 | 26.36366 | -80.35094 | 13745 ft | 365 kts | 301° |
| 2026-05-08 01:37 | 26.37724 | -80.37492 | 14260 ft | 367 kts | 301° |
| 2026-05-08 01:37 | 26.39091 | -80.39906 | 14807 ft | 369 kts | 301° |
| 2026-05-08 01:37 | 26.40459 | -80.42327 | 15354 ft | 370 kts | 301° |
| 2026-05-08 01:38 | 26.41835 | -80.44762 | 15912 ft | 371 kts | 301° |
| 2026-05-08 01:38 | 26.43214 | -80.47203 | 16477 ft | 372 kts | 301° |
| 2026-05-08 01:38 | 26.44595 | -80.49652 | 17044 ft | 374 kts | 301° |
| 2026-05-08 01:38 | 26.45986 | -80.52107 | 17624 ft | 375 kts | 302° |
| 2026-05-08 01:39 | 26.47617 | -80.54386 | 18202 ft | 378 kts | 314° |
| 2026-05-08 01:39 | 26.49655 | -80.56242 | 18701 ft | 382 kts | 325° |
| 2026-05-08 01:39 | 26.52043 | -80.57573 | 19185 ft | 387 kts | 338° |
| 2026-05-08 01:39 | 26.54645 | -80.58436 | 19684 ft | 391 kts | 341° |
| 2026-05-08 01:40 | 26.57269 | -80.59258 | 20182 ft | 393 kts | 341° |
| 2026-05-08 01:40 | 26.59910 | -80.60093 | 20684 ft | 396 kts | 340° |
| 2026-05-08 01:40 | 26.62566 | -80.60937 | 21147 ft | 398 kts | 340° |
| 2026-05-08 01:40 | 26.65230 | -80.61787 | 21611 ft | 400 kts | 340° |
| 2026-05-08 01:41 | 26.67922 | -80.62647 | 22069 ft | 403 kts | 340° |
| 2026-05-08 01:41 | 26.70626 | -80.63511 | 22498 ft | 405 kts | 340° |
| 2026-05-08 01:41 | 26.73335 | -80.64376 | 22920 ft | 407 kts | 339° |
| 2026-05-08 01:41 | 26.76036 | -80.65239 | 23330 ft | 410 kts | 339° |
| 2026-05-08 01:42 | 26.78783 | -80.66115 | 23712 ft | 412 kts | 339° |
| 2026-05-08 01:42 | 26.81575 | -80.67006 | 24046 ft | 414 kts | 339° |
| 2026-05-08 01:42 | 26.84315 | -80.67879 | 24369 ft | 416 kts | 339° |
| 2026-05-08 01:42 | 26.87141 | -80.68780 | 24705 ft | 418 kts | 339° |
| 2026-05-08 01:43 | 26.89951 | -80.69672 | 25044 ft | 419 kts | 339° |
| 2026-05-08 01:43 | 26.92713 | -80.70573 | 25355 ft | 420 kts | 338° |
| 2026-05-08 01:43 | 26.95537 | -80.71583 | 25671 ft | 422 kts | 336° |
| 2026-05-08 01:43 | 26.98288 | -80.72634 | 25973 ft | 423 kts | 336° |
| 2026-05-08 01:44 | 27.01067 | -80.73729 | 26274 ft | 425 kts | 335° |
| 2026-05-08 01:44 | 27.03866 | -80.74834 | 26573 ft | 427 kts | 336° |
| 2026-05-08 01:44 | 27.06674 | -80.75930 | 26870 ft | 429 kts | 336° |
| 2026-05-08 01:44 | 27.09512 | -80.77021 | 27157 ft | 431 kts | 336° |
| 2026-05-08 01:45 | 27.12356 | -80.78099 | 27461 ft | 433 kts | 336° |
| 2026-05-08 01:45 | 27.15231 | -80.79183 | 27757 ft | 436 kts | 336° |
| 2026-05-08 01:45 | 27.18107 | -80.80266 | 28063 ft | 438 kts | 336° |
| 2026-05-08 01:45 | 27.21000 | -80.81357 | 28350 ft | 440 kts | 336° |
| 2026-05-08 01:46 | 27.23911 | -80.82457 | 28640 ft | 442 kts | 336° |
| 2026-05-08 01:46 | 27.26826 | -80.83561 | 28925 ft | 444 kts | 336° |
| 2026-05-08 01:46 | 27.29760 | -80.84678 | 29275 ft | 444 kts | 336° |
| 2026-05-08 01:46 | 27.31695 | -80.85416 | 29561 ft | 443 kts | 336° |
| 2026-05-08 01:47 | 27.34113 | -80.86342 | 29916 ft | 442 kts | 335° |
| 2026-05-08 01:47 | 27.37097 | -80.87534 | 30307 ft | 441 kts | 335° |
| 2026-05-08 01:47 | 27.39965 | -80.88723 | 30669 ft | 439 kts | 334° |
| 2026-05-08 01:48 | 27.45674 | -80.91132 | 31412 ft | 437 kts | 334° |
| 2026-05-08 01:48 | 27.48528 | -80.92327 | 31769 ft | 437 kts | 334° |
| 2026-05-08 01:48 | 27.51380 | -80.93509 | 32149 ft | 436 kts | 334° |
| 2026-05-08 01:48 | 27.54222 | -80.94676 | 32528 ft | 435 kts | 334° |
| 2026-05-08 01:49 | 27.57064 | -80.95842 | 32930 ft | 434 kts | 334° |
| 2026-05-08 01:49 | 27.59899 | -80.97008 | 33314 ft | 433 kts | 334° |
| 2026-05-08 01:49 | 27.62725 | -80.98171 | 33700 ft | 432 kts | 334° |
| 2026-05-08 01:49 | 27.65547 | -80.99332 | 33963 ft | 432 kts | 334° |
| 2026-05-08 01:50 | 27.71231 | -81.01682 | 34014 ft | 437 kts | 334° |
| 2026-05-08 01:50 | 27.76950 | -81.04049 | 34012 ft | 438 kts | 334° |
| 2026-05-08 01:51 | 27.82673 | -81.06429 | 34015 ft | 437 kts | 334° |
| 2026-05-08 01:51 | 27.88381 | -81.08802 | 34028 ft | 437 kts | 334° |
| 2026-05-08 01:52 | 27.94094 | -81.11172 | 34025 ft | 437 kts | 334° |
| 2026-05-08 01:52 | 27.98479 | -81.12990 | 34012 ft | 438 kts | 334° |
| 2026-05-08 01:53 | 28.04196 | -81.15376 | 34018 ft | 437 kts | 333° |
| 2026-05-08 01:53 | 28.09756 | -81.18080 | 34045 ft | 434 kts | 329° |
| 2026-05-08 01:54 | 28.15208 | -81.21008 | 34059 ft | 433 kts | 328° |
| 2026-05-08 01:54 | 28.20659 | -81.23907 | 34053 ft | 433 kts | 329° |
| 2026-05-08 01:55 | 28.26146 | -81.26743 | 34039 ft | 433 kts | 329° |
| 2026-05-08 01:55 | 28.31628 | -81.29557 | 34029 ft | 433 kts | 329° |
| 2026-05-08 01:56 | 28.37113 | -81.32382 | 34041 ft | 433 kts | 329° |
| 2026-05-08 01:56 | 28.42602 | -81.35180 | 34044 ft | 433 kts | 329° |
| 2026-05-08 01:57 | 28.48097 | -81.37976 | 34039 ft | 433 kts | 329° |
| 2026-05-08 01:57 | 28.53582 | -81.40785 | 34038 ft | 432 kts | 328° |
| 2026-05-08 01:58 | 28.59057 | -81.43599 | 34037 ft | 432 kts | 328° |
| 2026-05-08 01:58 | 28.64511 | -81.46400 | 34037 ft | 432 kts | 328° |
| 2026-05-08 01:59 | 28.69994 | -81.49214 | 34065 ft | 432 kts | 328° |
| 2026-05-08 01:59 | 28.75467 | -81.52021 | 34050 ft | 431 kts | 328° |
| 2026-05-08 02:00 | 28.80925 | -81.54827 | 34046 ft | 429 kts | 328° |
| 2026-05-08 02:00 | 28.86361 | -81.57635 | 34053 ft | 429 kts | 328° |
| 2026-05-08 02:01 | 28.91838 | -81.60337 | 34046 ft | 434 kts | 335° |
| 2026-05-08 02:01 | 28.94819 | -81.61107 | 34043 ft | 445 kts | 345° |
| 2026-05-08 02:01 | 28.97922 | -81.61418 | 34042 ft | 448 kts | 347° |
| 2026-05-08 02:02 | 29.04146 | -81.61970 | 34052 ft | 448 kts | 347° |
| 2026-05-08 02:02 | 29.10363 | -81.62532 | 34044 ft | 448 kts | 347° |
| 2026-05-08 02:03 | 29.16576 | -81.63102 | 34040 ft | 448 kts | 347° |
| 2026-05-08 02:03 | 29.22780 | -81.63675 | 34036 ft | 448 kts | 347° |
| 2026-05-08 02:04 | 29.28989 | -81.64242 | 34057 ft | 447 kts | 347° |
| 2026-05-08 02:04 | 29.35198 | -81.64808 | 34039 ft | 448 kts | 347° |
| 2026-05-08 02:05 | 29.41411 | -81.65378 | 34029 ft | 447 kts | 346° |
| 2026-05-08 02:05 | 29.47578 | -81.65954 | 34016 ft | 448 kts | 346° |
| 2026-05-08 02:06 | 29.53841 | -81.66531 | 34010 ft | 449 kts | 347° |
| 2026-05-08 02:06 | 29.60077 | -81.67098 | 34023 ft | 450 kts | 346° |
| 2026-05-08 02:07 | 29.66292 | -81.67677 | 33998 ft | 452 kts | 346° |
| 2026-05-08 02:07 | 29.72578 | -81.68264 | 34000 ft | 454 kts | 346° |
| 2026-05-08 02:08 | 29.78879 | -81.68841 | 34003 ft | 455 kts | 346° |
| 2026-05-08 02:08 | 29.85183 | -81.69423 | 34001 ft | 455 kts | 346° |
| 2026-05-08 02:09 | 29.91506 | -81.70013 | 34019 ft | 456 kts | 345° |
| 2026-05-08 02:09 | 29.97823 | -81.70602 | 34009 ft | 456 kts | 345° |
| 2026-05-08 02:10 | 30.04153 | -81.71192 | 34003 ft | 456 kts | 345° |
| 2026-05-08 02:10 | 30.10466 | -81.71772 | 34018 ft | 456 kts | 345° |
| 2026-05-08 02:11 | 30.16792 | -81.72362 | 34040 ft | 455 kts | 345° |
| 2026-05-08 02:11 | 30.23103 | -81.72960 | 34030 ft | 455 kts | 345° |
| 2026-05-08 02:12 | 30.29427 | -81.73553 | 34053 ft | 455 kts | 345° |
| 2026-05-08 02:12 | 30.35742 | -81.74142 | 34047 ft | 455 kts | 345° |
| 2026-05-08 02:13 | 30.42058 | -81.74734 | 34005 ft | 455 kts | 345° |
| 2026-05-08 02:13 | 30.48372 | -81.75331 | 34003 ft | 455 kts | 345° |
| 2026-05-08 02:14 | 30.54696 | -81.75921 | 34004 ft | 456 kts | 345° |
| 2026-05-08 02:14 | 30.59932 | -81.76462 | 34001 ft | 450 kts | 341° |
| 2026-05-08 02:15 | 30.62934 | -81.77265 | 33997 ft | 437 kts | 332° |
| 2026-05-08 02:15 | 30.65708 | -81.78580 | 33998 ft | 426 kts | 324° |
| 2026-05-08 02:15 | 30.71016 | -81.81665 | 34015 ft | 426 kts | 324° |
| 2026-05-08 02:16 | 30.76328 | -81.84741 | 34004 ft | 427 kts | 324° |
| 2026-05-08 02:16 | 30.81662 | -81.87827 | 33995 ft | 428 kts | 324° |
| 2026-05-08 02:17 | 30.86987 | -81.90911 | 33990 ft | 428 kts | 324° |
| 2026-05-08 02:17 | 30.92326 | -81.94009 | 33989 ft | 428 kts | 324° |
| 2026-05-08 02:18 | 30.97653 | -81.97107 | 33993 ft | 428 kts | 324° |
| 2026-05-08 02:18 | 31.02978 | -82.00210 | 34011 ft | 428 kts | 323° |
| 2026-05-08 02:19 | 31.08301 | -82.03309 | 34004 ft | 428 kts | 324° |
| 2026-05-08 02:19 | 31.13625 | -82.06412 | 34001 ft | 427 kts | 323° |
| 2026-05-08 02:20 | 31.18905 | -82.09496 | 34011 ft | 427 kts | 323° |
| 2026-05-08 02:20 | 31.24210 | -82.12601 | 34013 ft | 427 kts | 323° |
| 2026-05-08 02:21 | 31.29528 | -82.15710 | 34023 ft | 426 kts | 323° |
| 2026-05-08 02:21 | 31.34795 | -82.18805 | 34003 ft | 424 kts | 323° |
| 2026-05-08 02:22 | 31.40069 | -82.21911 | 33994 ft | 424 kts | 323° |
| 2026-05-08 02:22 | 31.45340 | -82.25005 | 33987 ft | 424 kts | 323° |
| 2026-05-08 02:23 | 31.50609 | -82.28112 | 33994 ft | 424 kts | 323° |
| 2026-05-08 02:23 | 31.55878 | -82.31222 | 33986 ft | 425 kts | 323° |
| 2026-05-08 02:24 | 31.61165 | -82.34336 | 34004 ft | 424 kts | 323° |
| 2026-05-08 02:24 | 31.66425 | -82.37437 | 33999 ft | 423 kts | 323° |
| 2026-05-08 02:25 | 31.71665 | -82.40540 | 33998 ft | 422 kts | 323° |
| 2026-05-08 02:25 | 31.76910 | -82.43649 | 33991 ft | 422 kts | 323° |
| 2026-05-08 02:26 | 31.82155 | -82.46755 | 33988 ft | 422 kts | 323° |
| 2026-05-08 02:26 | 31.87389 | -82.49863 | 33988 ft | 419 kts | 322° |
| 2026-05-08 02:27 | 31.92570 | -82.52944 | 33985 ft | 417 kts | 322° |
| 2026-05-08 02:27 | 31.97491 | -82.56361 | 33979 ft | 400 kts | 310° |
| 2026-05-08 02:28 | 32.01676 | -82.60632 | 33810 ft | 398 kts | 309° |
| 2026-05-08 02:28 | 32.03766 | -82.62765 | 33548 ft | 398 kts | 309° |
| 2026-05-08 02:28 | 32.05858 | -82.64897 | 33294 ft | 398 kts | 309° |
| 2026-05-08 02:29 | 32.07952 | -82.67030 | 32911 ft | 398 kts | 309° |
| 2026-05-08 02:29 | 32.10049 | -82.69171 | 32051 ft | 400 kts | 310° |
| 2026-05-08 02:29 | 32.12164 | -82.71332 | 31271 ft | 401 kts | 310° |
| 2026-05-08 02:29 | 32.14277 | -82.73490 | 30499 ft | 402 kts | 310° |
| 2026-05-08 02:30 | 32.16394 | -82.75651 | 29571 ft | 404 kts | 311° |
| 2026-05-08 02:30 | 32.18477 | -82.77774 | 29146 ft | 395 kts | 310° |
| 2026-05-08 02:30 | 32.20563 | -82.79896 | 28602 ft | 388 kts | 310° |
| 2026-05-08 02:30 | 32.22585 | -82.81960 | 28071 ft | 382 kts | 310° |
| 2026-05-08 02:31 | 32.24551 | -82.83974 | 27544 ft | 376 kts | 310° |
| 2026-05-08 02:31 | 32.26516 | -82.85991 | 27048 ft | 372 kts | 310° |
| 2026-05-08 02:31 | 32.28451 | -82.87981 | 26517 ft | 367 kts | 310° |
| 2026-05-08 02:31 | 32.30365 | -82.89951 | 26010 ft | 363 kts | 310° |
| 2026-05-08 02:32 | 32.32261 | -82.91902 | 25524 ft | 360 kts | 310° |
| 2026-05-08 02:32 | 32.34139 | -82.93838 | 25031 ft | 357 kts | 310° |
| 2026-05-08 02:32 | 32.36006 | -82.95764 | 24531 ft | 355 kts | 310° |
| 2026-05-08 02:32 | 32.37869 | -82.97683 | 24049 ft | 354 kts | 310° |
| 2026-05-08 02:33 | 32.39721 | -82.99589 | 23690 ft | 355 kts | 310° |
| 2026-05-08 02:33 | 32.41604 | -83.01537 | 23335 ft | 361 kts | 310° |
| 2026-05-08 02:33 | 32.43496 | -83.03492 | 23019 ft | 363 kts | 310° |
| 2026-05-08 02:33 | 32.45398 | -83.05454 | 22650 ft | 362 kts | 311° |
| 2026-05-08 02:34 | 32.47299 | -83.07405 | 22308 ft | 361 kts | 311° |
| 2026-05-08 02:34 | 32.49195 | -83.09353 | 21972 ft | 359 kts | 311° |
| 2026-05-08 02:34 | 32.51075 | -83.11284 | 21620 ft | 357 kts | 311° |
| 2026-05-08 02:34 | 32.52946 | -83.13206 | 21298 ft | 355 kts | 311° |
| 2026-05-08 02:35 | 32.54808 | -83.15125 | 20969 ft | 353 kts | 310° |
| 2026-05-08 02:35 | 32.56657 | -83.17039 | 20635 ft | 352 kts | 310° |
| 2026-05-08 02:35 | 32.58497 | -83.18945 | 20302 ft | 351 kts | 310° |
| 2026-05-08 02:35 | 32.59952 | -83.20451 | 20039 ft | 349 kts | 310° |
| 2026-05-08 02:36 | 32.61749 | -83.22307 | 19838 ft | 333 kts | 310° |
| 2026-05-08 02:36 | 32.63434 | -83.24030 | 19713 ft | 307 kts | 310° |
| 2026-05-08 02:36 | 32.65009 | -83.25642 | 19355 ft | 293 kts | 309° |
| 2026-05-08 02:36 | 32.66518 | -83.27207 | 18873 ft | 284 kts | 309° |
| 2026-05-08 02:37 | 32.68008 | -83.28771 | 18591 ft | 287 kts | 309° |
| 2026-05-08 02:37 | 32.69476 | -83.30319 | 18317 ft | 286 kts | 309° |
| 2026-05-08 02:37 | 32.70983 | -83.31903 | 18042 ft | 285 kts | 309° |
| 2026-05-08 02:37 | 32.72468 | -83.33460 | 17777 ft | 285 kts | 309° |
| 2026-05-08 02:38 | 32.73933 | -83.34991 | 17509 ft | 283 kts | 309° |
| 2026-05-08 02:38 | 32.75412 | -83.36531 | 17237 ft | 282 kts | 309° |
| 2026-05-08 02:38 | 32.76881 | -83.38061 | 16981 ft | 280 kts | 309° |
| 2026-05-08 02:38 | 32.78341 | -83.39581 | 16720 ft | 279 kts | 309° |
| 2026-05-08 02:39 | 32.79796 | -83.41094 | 16455 ft | 277 kts | 309° |
| 2026-05-08 02:39 | 32.81246 | -83.42603 | 16199 ft | 275 kts | 309° |
| 2026-05-08 02:39 | 32.82680 | -83.44097 | 15959 ft | 274 kts | 309° |
| 2026-05-08 02:39 | 32.84106 | -83.45585 | 15700 ft | 272 kts | 309° |
| 2026-05-08 02:40 | 32.85527 | -83.47069 | 15443 ft | 271 kts | 309° |
| 2026-05-08 02:40 | 32.86941 | -83.48543 | 15188 ft | 269 kts | 309° |
| 2026-05-08 02:40 | 32.88343 | -83.50007 | 14945 ft | 268 kts | 309° |
| 2026-05-08 02:40 | 32.89738 | -83.51468 | 14693 ft | 266 kts | 309° |
| 2026-05-08 02:41 | 32.91126 | -83.52925 | 14443 ft | 265 kts | 309° |
| 2026-05-08 02:41 | 32.92500 | -83.54370 | 14204 ft | 263 kts | 309° |
| 2026-05-08 02:41 | 32.93866 | -83.55806 | 14100 ft | 262 kts | 309° |
| 2026-05-08 02:41 | 32.95232 | -83.57241 | 13961 ft | 263 kts | 309° |
| 2026-05-08 02:42 | 32.96598 | -83.58675 | 13676 ft | 260 kts | 309° |
| 2026-05-08 02:42 | 32.97949 | -83.60090 | 13425 ft | 256 kts | 310° |
| 2026-05-08 02:42 | 32.99271 | -83.61468 | 13225 ft | 250 kts | 310° |
| 2026-05-08 02:42 | 33.00572 | -83.62828 | 12944 ft | 247 kts | 309° |
| 2026-05-08 02:43 | 33.01854 | -83.64172 | 12684 ft | 245 kts | 309° |
| 2026-05-08 02:43 | 33.03117 | -83.65499 | 12435 ft | 245 kts | 310° |
| 2026-05-08 02:43 | 33.04394 | -83.66843 | 12202 ft | 245 kts | 310° |
| 2026-05-08 02:43 | 33.05686 | -83.68201 | 11959 ft | 245 kts | 310° |
| 2026-05-08 02:44 | 33.06965 | -83.69546 | 11721 ft | 245 kts | 310° |
| 2026-05-08 02:44 | 33.08232 | -83.70876 | 11495 ft | 245 kts | 310° |
| 2026-05-08 02:44 | 33.09531 | -83.72243 | 11409 ft | 246 kts | 310° |
| 2026-05-08 02:44 | 33.10798 | -83.73577 | 11311 ft | 247 kts | 310° |
| 2026-05-08 02:45 | 33.12087 | -83.74936 | 11201 ft | 247 kts | 310° |
| 2026-05-08 02:45 | 33.13377 | -83.76297 | 11104 ft | 247 kts | 310° |
| 2026-05-08 02:45 | 33.14673 | -83.77660 | 10944 ft | 248 kts | 310° |
| 2026-05-08 02:45 | 33.15961 | -83.79017 | 10673 ft | 247 kts | 310° |
| 2026-05-08 02:46 | 33.17249 | -83.80376 | 10408 ft | 248 kts | 311° |
| 2026-05-08 02:46 | 33.18539 | -83.81741 | 10156 ft | 248 kts | 311° |
| 2026-05-08 02:46 | 33.19811 | -83.83129 | 9908 ft | 247 kts | 309° |
| 2026-05-08 02:46 | 33.21038 | -83.84567 | 9655 ft | 247 kts | 308° |
| 2026-05-08 02:47 | 33.22248 | -83.86022 | 9427 ft | 247 kts | 308° |
| 2026-05-08 02:47 | 33.23452 | -83.87472 | 9195 ft | 245 kts | 308° |
| 2026-05-08 02:47 | 33.24654 | -83.88919 | 8953 ft | 245 kts | 308° |
| 2026-05-08 02:47 | 33.25854 | -83.90365 | 8725 ft | 245 kts | 308° |
| 2026-05-08 02:48 | 33.27055 | -83.91804 | 8499 ft | 245 kts | 308° |
| 2026-05-08 02:48 | 33.28258 | -83.93246 | 8267 ft | 244 kts | 308° |
| 2026-05-08 02:48 | 33.29460 | -83.94683 | 8036 ft | 244 kts | 309° |
| 2026-05-08 02:48 | 33.30664 | -83.96123 | 7909 ft | 245 kts | 309° |
| 2026-05-08 02:49 | 33.31867 | -83.97563 | 7780 ft | 245 kts | 309° |
| 2026-05-08 02:49 | 33.33068 | -83.99000 | 7655 ft | 244 kts | 309° |
| 2026-05-08 02:49 | 33.34269 | -84.00434 | 7531 ft | 244 kts | 309° |
| 2026-05-08 02:49 | 33.35542 | -84.01795 | 7398 ft | 249 kts | 320° |
| 2026-05-08 02:50 | 33.37129 | -84.02688 | 7265 ft | 258 kts | 338° |
| 2026-05-08 02:50 | 33.38946 | -84.02943 | 7118 ft | 268 kts | 352° |
| 2026-05-08 02:50 | 33.40812 | -84.02966 | 6968 ft | 268 kts | 352° |
| 2026-05-08 02:50 | 33.42673 | -84.02997 | 6821 ft | 267 kts | 352° |
| 2026-05-08 02:51 | 33.44522 | -84.03057 | 6663 ft | 264 kts | 347° |
| 2026-05-08 02:51 | 33.46249 | -84.03609 | 6476 ft | 253 kts | 331° |
| 2026-05-08 02:51 | 33.47867 | -84.04407 | 6370 ft | 252 kts | 330° |
| 2026-05-08 02:51 | 33.49495 | -84.05222 | 6313 ft | 254 kts | 331° |
| 2026-05-08 02:52 | 33.51103 | -84.06032 | 6257 ft | 254 kts | 331° |
| 2026-05-08 02:52 | 33.52753 | -84.06866 | 6199 ft | 253 kts | 331° |
| 2026-05-08 02:52 | 33.54345 | -84.07671 | 6157 ft | 253 kts | 331° |
| 2026-05-08 02:52 | 33.55981 | -84.08498 | 6106 ft | 251 kts | 332° |
| 2026-05-08 02:53 | 33.57574 | -84.09301 | 6050 ft | 252 kts | 331° |
| 2026-05-08 02:53 | 33.59189 | -84.10115 | 5992 ft | 250 kts | 331° |
| 2026-05-08 02:53 | 33.60793 | -84.10926 | 5859 ft | 250 kts | 331° |
| 2026-05-08 02:53 | 33.62389 | -84.11736 | 5549 ft | 249 kts | 332° |
| 2026-05-08 02:54 | 33.63902 | -84.12708 | 5223 ft | 243 kts | 314° |
| 2026-05-08 02:54 | 33.64800 | -84.14361 | 4921 ft | 236 kts | 285° |
| 2026-05-08 02:54 | 33.64928 | -84.16273 | 4747 ft | 224 kts | 271° |
| 2026-05-08 02:54 | 33.64929 | -84.18066 | 4614 ft | 206 kts | 271° |
| 2026-05-08 02:55 | 33.64932 | -84.19730 | 4417 ft | 193 kts | 271° |
| 2026-05-08 02:55 | 33.64938 | -84.22830 | 3953 ft | 180 kts | 272° |
| 2026-05-08 02:55 | 33.64940 | -84.24289 | 3705 ft | 169 kts | 272° |
| 2026-05-08 02:56 | 33.64941 | -84.25638 | 3493 ft | 152 kts | 273° |
| 2026-05-08 02:56 | 33.64943 | -84.26855 | 3307 ft | 142 kts | 274° |
| 2026-05-08 02:56 | 33.64945 | -84.28019 | 3119 ft | 137 kts | 274° |
| 2026-05-08 02:56 | 33.64946 | -84.29160 | 2927 ft | 137 kts | 275° |
| 2026-05-08 02:57 | 33.64948 | -84.30305 | 2748 ft | 137 kts | 275° |
| 2026-05-08 02:57 | 33.64949 | -84.31448 | 2564 ft | 137 kts | 275° |
| 2026-05-08 02:57 | 33.64950 | -84.32598 | 2382 ft | 137 kts | 275° |
| 2026-05-08 02:57 | 33.64951 | -84.33733 | 2200 ft | 136 kts | 274° |
| 2026-05-08 02:58 | 33.64952 | -84.34868 | 2021 ft | 135 kts | 275° |
| 2026-05-08 02:58 | 33.64952 | -84.36000 | 1845 ft | 136 kts | 275° |
| 2026-05-08 02:58 | 33.64953 | -84.37130 | 1669 ft | 136 kts | 274° |
| 2026-05-08 02:58 | 33.64953 | -84.38266 | 1475 ft | 136 kts | 271° |
| 2026-05-08 02:59 | 33.64954 | -84.39403 | 1306 ft | 137 kts | 271° |
| 2026-05-08 02:59 | 33.64954 | -84.40541 | 1123 ft | 136 kts | 270° |
| 2026-05-08 02:59 | 33.64953 | -84.41650 | 1008 ft | 121 kts | 270° |
| 2026-05-08 02:59 | 33.64954 | -84.42333 | 1007 ft | 39 kts | 270° |
| 2026-05-08 03:00 | 33.64949 | -84.42563 | 1007 ft | 24 kts | 263° |
| 2026-05-08 03:00 | 33.64896 | -84.42754 | 1007 ft | 21 kts | 243° |
| 2026-05-08 03:00 | 33.64840 | -84.42848 | 1006 ft | 10 kts | 225° |
| 2026-05-08 03:00 | 33.64790 | -84.42880 | 1007 ft | 8 kts | 190° |
| 2026-05-08 03:01 | 33.64713 | -84.42877 | 1008 ft | 18 kts | 173° |
| 2026-05-08 03:01 | 33.64550 | -84.42796 | 1006 ft | 25 kts | 154° |
| 2026-05-08 03:01 | 33.64431 | -84.42732 | 1006 ft | 16 kts | 142° |
| 2026-05-08 03:01 | 33.64402 | -84.42651 | 1006 ft | 6 kts | 90° |
| 2026-05-08 03:02 | 33.64402 | -84.42633 | 1006 ft | 0 kts | 88° |